Time;durP1;ratioP1;P1;durP2;ratioP2;P2;SDS_P1;SDS_P2;PMS_P1;PMS_P2;Temp;Humidity;BMP_temperature;BMP_pressure;BME280_temperature;BME280_humidity;BME280_pressure;Samples;Min_cycle;Max_cycle;Signal;HPM_P1;HPM_P2
2024/03/04 00:00:50;;;;;;;18.27;13.73;;;;;;;8.50;78.18;94266.78;5012704;28;20191;-80
2024/03/04 00:03:16;;;;;;;17.77;13.30;;;;;;;8.49;78.24;94267.78;5019698;28;20580;-80
2024/03/04 00:05:41;;;;;;;19.20;13.43;;;;;;;8.46;78.56;94277.63;5000134;28;20279;-80
2024/03/04 00:08:07;;;;;;;16.97;13.57;;;;;;;8.45;78.79;94283.78;5009059;28;20696;-80
2024/03/04 00:10:32;;;;;;;19.17;14.67;;;;;;;8.37;79.58;94278.63;5017039;28;20269;-80
2024/03/04 00:12:58;;;;;;;20.23;14.37;;;;;;;8.39;79.61;94281.84;5003969;28;20317;-80
2024/03/04 00:15:24;;;;;;;18.87;13.93;;;;;;;8.41;79.21;94292.84;5007003;28;20217;-80
2024/03/04 00:17:52;;;;;;;18.03;13.70;;;;;;;8.42;79.60;94291.88;5019200;28;20671;-79
2024/03/04 00:20:18;;;;;;;16.70;13.53;;;;;;;8.38;79.56;94295.75;5028108;28;20198;-80
2024/03/04 00:22:45;;;;;;;16.70;13.60;;;;;;;8.45;79.53;94297.53;5027386;28;20218;-80
2024/03/04 00:25:15;;;;;;;18.80;13.33;;;;;;;8.44;79.20;94295.91;5020466;28;20288;-79
2024/03/04 00:27:44;;;;;;;15.93;12.93;;;;;;;8.37;79.79;94299.31;5019872;28;20213;-79
2024/03/04 00:30:10;;;;;;;18.47;14.33;;;;;;;8.34;80.44;94307.38;5018411;28;20183;-80
2024/03/04 00:32:35;;;;;;;17.73;14.57;;;;;;;8.19;81.23;94304.63;5010489;28;20245;-80
2024/03/04 00:35:01;;;;;;;19.47;14.57;;;;;;;8.27;81.03;94314.97;5011198;28;20211;-81
2024/03/04 00:37:26;;;;;;;21.10;15.00;;;;;;;8.35;80.56;94316.78;5016255;28;20187;-80
2024/03/04 00:39:51;;;;;;;18.63;14.23;;;;;;;8.29;80.79;94320.78;5018836;28;20783;-80
2024/03/04 00:42:17;;;;;;;18.70;14.07;;;;;;;8.11;81.61;94317.56;5009379;28;21047;-79
2024/03/04 00:44:43;;;;;;;18.90;13.33;;;;;;;8.28;80.85;94318.38;5001172;28;20239;-80
2024/03/04 00:47:08;;;;;;;17.30;13.73;;;;;;;8.24;80.63;94321.28;5018145;28;20552;-80
2024/03/04 00:49:34;;;;;;;17.63;13.73;;;;;;;8.23;81.20;94330.03;5019286;28;20209;-80
2024/03/04 00:52:00;;;;;;;17.53;14.60;;;;;;;8.19;81.20;94325.31;5007158;28;20187;-80
2024/03/04 00:54:25;;;;;;;18.50;13.03;;;;;;;8.23;80.81;94332.63;5010542;28;20722;-80
2024/03/04 00:56:50;;;;;;;17.00;13.13;;;;;;;8.23;80.37;94324.84;4997963;28;20187;-80
2024/03/04 00:59:17;;;;;;;19.00;13.97;;;;;;;8.13;81.19;94328.59;5004424;28;20260;-80
2024/03/04 01:01:42;;;;;;;16.73;13.73;;;;;;;8.19;80.91;94331.31;5017270;28;20229;-79
2024/03/04 01:04:08;;;;;;;18.57;13.97;;;;;;;8.17;81.00;94328.09;5004861;28;20226;-80
2024/03/04 01:06:33;;;;;;;17.90;13.67;;;;;;;8.19;81.10;94327.91;5009276;28;20726;-80
2024/03/04 01:08:58;;;;;;;18.43;13.87;;;;;;;8.15;81.12;94334.41;5019755;28;20629;-79
2024/03/04 01:11:24;;;;;;;15.90;13.27;;;;;;;8.12;81.31;94337.28;5026065;28;20206;-80
2024/03/04 01:13:49;;;;;;;17.93;13.53;;;;;;;8.15;81.26;94334.41;5001226;28;20242;-79
2024/03/04 01:16:15;;;;;;;17.27;13.17;;;;;;;8.10;80.89;94342.63;5016049;28;20215;-79
2024/03/04 01:18:41;;;;;;;17.13;13.90;;;;;;;8.07;81.53;94353.28;5020679;28;20187;-79
2024/03/04 01:21:06;;;;;;;16.73;13.23;;;;;;;8.11;81.64;94353.78;5019306;28;20244;-80
2024/03/04 01:23:32;;;;;;;20.57;13.80;;;;;;;8.06;81.79;94353.47;5017213;28;20187;-80
2024/03/04 01:25:58;;;;;;;16.40;13.67;;;;;;;7.98;82.07;94359.44;5018876;28;20206;-79
2024/03/04 01:28:23;;;;;;;17.70;14.07;;;;;;;7.91;82.01;94361.03;5016720;28;20201;-80
2024/03/04 01:30:53;;;;;;;16.50;13.73;;;;;;;7.82;82.39;94365.38;5014921;28;20649;-80
2024/03/04 01:33:18;;;;;;;17.27;13.77;;;;;;;7.80;82.09;94369.91;5007780;28;20232;-80
2024/03/04 01:35:44;;;;;;;15.70;12.47;;;;;;;7.76;82.52;94363.44;5010423;28;20218;-79
2024/03/04 01:38:10;;;;;;;17.70;14.23;;;;;;;7.62;83.04;94370.03;5019029;28;20202;-80
2024/03/04 01:40:35;;;;;;;16.93;13.73;;;;;;;7.55;83.57;94370.81;5017285;28;20191;-80
2024/03/04 01:43:01;;;;;;;19.67;14.20;;;;;;;7.55;83.32;94386.31;5017559;28;20217;-79
2024/03/04 01:45:27;;;;;;;17.60;14.07;;;;;;;7.48;83.99;94377.59;5014968;28;20214;-79
2024/03/04 01:47:55;;;;;;;17.83;13.90;;;;;;;7.51;83.68;94385.84;5019900;28;20682;-80
2024/03/04 01:50:24;;;;;;;19.30;14.80;;;;;;;7.43;84.00;94385.81;5020104;28;20181;-80
2024/03/04 01:52:50;;;;;;;18.87;14.57;;;;;;;7.42;84.28;94386.78;5014281;28;20240;-79
2024/03/04 01:55:16;;;;;;;20.17;15.47;;;;;;;7.39;84.60;94380.13;5004617;28;20239;-79
2024/03/04 01:57:43;;;;;;;20.60;16.20;;;;;;;7.38;84.36;94388.03;5002900;28;20548;-79
2024/03/04 02:00:11;;;;;;;20.73;15.73;;;;;;;7.35;84.48;94388.38;5023014;28;20224;-80
2024/03/04 02:02:40;;;;;;;20.80;15.90;;;;;;;7.28;85.45;94389.94;5003609;28;20211;-80
2024/03/04 02:05:09;;;;;;;21.63;16.63;;;;;;;7.31;85.40;94392.22;5014142;28;20579;-80
2024/03/04 02:07:38;;;;;;;24.07;16.87;;;;;;;7.30;86.12;94400.94;5022325;28;20179;-80
2024/03/04 02:10:07;;;;;;;22.83;16.70;;;;;;;7.35;85.90;94406.44;5021859;28;20187;-79
2024/03/04 02:12:33;;;;;;;22.03;16.63;;;;;;;7.32;86.38;94410.13;5000786;28;20187;-79
2024/03/04 02:14:59;;;;;;;26.73;17.47;;;;;;;7.28;87.07;94414.00;5020244;28;20294;-80
2024/03/04 02:17:27;;;;;;;23.77;18.10;;;;;;;7.40;86.82;94417.09;5012591;28;20285;-79
2024/03/04 02:20:03;;;;;;;27.30;19.13;;;;;;;7.36;87.17;94423.56;5020517;28;20608;-79
2024/03/04 02:22:29;;;;;;;26.43;18.30;;;;;;;7.46;86.93;94420.84;5015157;28;20237;-80
2024/03/04 02:24:55;;;;;;;26.07;18.37;;;;;;;7.47;87.08;94428.44;5015233;28;20233;-79
2024/03/04 02:27:23;;;;;;;25.60;18.50;;;;;;;7.54;86.85;94429.44;5004260;28;20197;-80
2024/03/04 02:29:48;;;;;;;25.87;18.63;;;;;;;7.43;87.78;94434.09;5021193;28;20265;-80
2024/03/04 02:32:17;;;;;;;25.53;19.40;;;;;;;7.55;87.23;94425.88;5023590;28;20250;-79
2024/03/04 02:34:45;;;;;;;28.57;20.63;;;;;;;7.52;87.82;94428.78;5023976;28;20217;-79
2024/03/04 02:37:11;;;;;;;28.13;19.67;;;;;;;7.51;87.91;94429.75;5021291;28;20179;-80
2024/03/04 02:39:37;;;;;;;26.07;19.50;;;;;;;7.57;88.01;94430.88;5020276;28;20195;-79
2024/03/04 02:42:03;;;;;;;27.67;19.50;;;;;;;7.63;87.96;94430.28;5020196;28;20616;-79
2024/03/04 02:44:30;;;;;;;27.00;18.47;;;;;;;7.65;88.24;94433.50;5012400;28;20233;-79
2024/03/04 02:46:55;;;;;;;29.93;20.07;;;;;;;7.60;88.45;94436.56;5002101;28;20274;-79
2024/03/04 02:49:21;;;;;;;31.37;19.30;;;;;;;7.60;88.19;94446.91;5012647;28;20370;-80
2024/03/04 02:51:46;;;;;;;30.03;20.40;;;;;;;7.51;88.79;94447.84;5008439;28;20210;-79
2024/03/04 02:54:11;;;;;;;28.60;20.53;;;;;;;7.55;89.15;94459.47;5007518;28;20621;-79
2024/03/04 02:56:38;;;;;;;29.10;20.77;;;;;;;7.55;89.60;94459.47;5014346;28;20244;-79
2024/03/04 02:59:03;;;;;;;32.97;23.30;;;;;;;7.52;89.33;94466.72;5004745;28;20190;-80
2024/03/04 03:01:28;;;;;;;29.00;20.60;;;;;;;7.69;88.74;94470.19;5002713;28;20207;-80
2024/03/04 03:03:54;;;;;;;29.50;20.23;;;;;;;7.66;89.02;94476.47;5007094;28;20255;-79
2024/03/04 03:06:20;;;;;;;33.83;21.50;;;;;;;7.59;88.86;94478.03;5017466;28;20253;-78
2024/03/04 03:08:45;;;;;;;32.50;21.00;;;;;;;7.48;89.94;94473.97;5024111;28;20230;-79
2024/03/04 03:11:11;;;;;;;36.03;22.00;;;;;;;7.60;89.39;94464.19;5021578;28;20695;-79
2024/03/04 03:13:37;;;;;;;31.37;22.10;;;;;;;7.55;89.48;94474.97;5018174;28;20278;-79
2024/03/04 03:16:04;;;;;;;32.83;22.53;;;;;;;7.59;89.59;94481.44;5018244;28;20290;-79
2024/03/04 03:18:30;;;;;;;34.83;23.53;;;;;;;7.53;89.96;94482.06;5008308;28;20190;-79
2024/03/04 03:20:55;;;;;;;35.00;23.37;;;;;;;7.47;89.96;94477.53;5022293;28;20568;-80
2024/03/04 03:23:21;;;;;;;34.00;22.63;;;;;;;7.34;91.40;94482.31;5013986;28;20285;-80
2024/03/04 03:25:46;;;;;;;35.03;23.67;;;;;;;7.50;90.39;94487.53;5022539;28;20289;-80
2024/03/04 03:28:13;;;;;;;33.97;23.30;;;;;;;7.42;90.68;94495.28;5007390;28;20187;-79
2024/03/04 03:30:40;;;;;;;31.33;20.80;;;;;;;7.46;90.18;94499.16;5001206;28;20565;-79
2024/03/04 03:33:05;;;;;;;36.07;23.53;;;;;;;7.58;89.70;94490.16;5017819;28;20171;-80
2024/03/04 03:35:30;;;;;;;34.67;23.43;;;;;;;7.55;90.28;94495.63;5012691;28;20269;-78
2024/03/04 03:37:56;;;;;;;34.23;21.83;;;;;;;7.51;90.56;94488.34;5020109;28;20191;-78
2024/03/04 03:40:21;;;;;;;34.90;23.77;;;;;;;7.40;91.12;94494.59;5017496;28;20193;-78
2024/03/04 03:42:47;;;;;;;38.10;23.87;;;;;;;7.35;91.25;94509.75;4999467;28;20211;-79
2024/03/04 03:45:12;;;;;;;38.13;22.70;;;;;;;7.32;91.14;94520.38;5019285;28;20198;-78
2024/03/04 03:47:37;;;;;;;39.77;24.20;;;;;;;7.41;91.03;94516.06;5015112;28;20214;-79
2024/03/04 03:50:03;;;;;;;37.27;23.40;;;;;;;7.46;91.16;94522.41;5009313;28;20186;-79
2024/03/04 03:52:31;;;;;;;37.70;23.53;;;;;;;7.48;90.36;94520.47;5018345;28;20214;-80
2024/03/04 03:54:57;;;;;;;39.47;25.07;;;;;;;7.46;90.39;94524.97;5005213;28;20811;-79
2024/03/04 03:57:22;;;;;;;35.07;22.57;;;;;;;7.55;90.22;94521.47;5013613;28;20198;-79
2024/03/04 03:59:47;;;;;;;36.57;23.83;;;;;;;7.62;89.70;94522.47;5019368;28;20194;-79
2024/03/04 04:02:12;;;;;;;34.83;22.73;;;;;;;7.72;89.09;94529.31;5006467;28;20211;-79
2024/03/04 04:04:38;;;;;;;37.37;23.77;;;;;;;7.54;89.62;94548.28;5018842;28;20580;-80
2024/03/04 04:07:03;;;;;;;36.43;23.27;;;;;;;7.65;89.53;94555.75;5014661;28;20241;-79
2024/03/04 04:09:29;;;;;;;39.17;23.10;;;;;;;7.64;89.75;94556.72;5003247;28;20182;-79
2024/03/04 04:11:55;;;;;;;39.00;23.67;;;;;;;7.65;89.34;94560.91;5017658;28;20244;-78
2024/03/04 04:14:20;;;;;;;37.67;23.23;;;;;;;7.66;89.19;94562.53;5016198;28;20210;-79
2024/03/04 04:16:45;;;;;;;39.03;24.57;;;;;;;7.62;89.65;94569.00;5012001;28;20286;-79
2024/03/04 04:19:11;;;;;;;41.13;24.73;;;;;;;7.65;89.32;94573.84;5018854;28;20201;-78
2024/03/04 04:21:36;;;;;;;42.37;24.73;;;;;;;7.53;90.14;94572.50;5014266;28;20229;-79
2024/03/04 04:24:01;;;;;;;41.47;24.57;;;;;;;7.57;89.98;94578.16;5004392;28;20187;-78
2024/03/04 04:26:27;;;;;;;39.80;24.60;;;;;;;7.57;90.22;94581.53;5018088;28;20213;-79
2024/03/04 04:28:52;;;;;;;39.47;23.47;;;;;;;7.54;90.21;94583.63;5006004;28;20754;-78
2024/03/04 04:31:22;;;;;;;35.03;23.70;;;;;;;7.61;89.75;94600.16;5010736;28;21083;-78
2024/03/04 04:33:48;;;;;;;38.60;23.70;;;;;;;7.54;90.10;94601.72;5014704;28;20270;-78
2024/03/04 04:36:15;;;;;;;41.23;24.97;;;;;;;7.55;90.01;94608.50;5019144;28;20249;-79
2024/03/04 04:38:40;;;;;;;36.40;24.17;;;;;;;7.64;89.44;94608.41;5017260;28;20182;-79
2024/03/04 04:41:05;;;;;;;40.53;25.40;;;;;;;7.56;89.96;94610.94;5002760;28;20198;-78
2024/03/04 04:43:33;;;;;;;37.10;23.47;;;;;;;7.67;89.96;94617.63;5014917;28;20214;-79
2024/03/04 04:45:59;;;;;;;41.43;24.83;;;;;;;7.76;88.86;94618.47;5013455;28;20675;-78
2024/03/04 04:48:24;;;;;;;43.53;26.23;;;;;;;7.70;89.06;94608.75;5013525;28;20185;-78
2024/03/04 04:50:49;;;;;;;38.43;23.93;;;;;;;7.72;89.22;94622.34;5007188;28;20189;-79
2024/03/04 04:53:15;;;;;;;47.50;26.30;;;;;;;7.61;90.08;94626.00;5005418;28;20774;-79
2024/03/04 04:55:40;;;;;;;47.63;26.33;;;;;;;7.67;89.61;94636.50;5000745;28;20214;-80
2024/03/04 04:58:05;;;;;;;44.20;25.53;;;;;;;7.72;89.26;94635.25;4998586;28;20237;-79
2024/03/04 05:00:31;;;;;;;44.97;25.43;;;;;;;7.45;91.00;94638.78;5018771;28;20199;-79
2024/03/04 05:02:56;;;;;;;46.13;26.70;;;;;;;7.67;89.87;94646.03;5018774;28;20223;-79
2024/03/04 05:05:22;;;;;;;44.13;26.23;;;;;;;7.49;90.57;94653.81;5019653;28;20206;-79
2024/03/04 05:07:48;;;;;;;45.13;26.60;;;;;;;7.68;89.78;94650.25;5016820;28;20198;-79
2024/03/04 05:10:14;;;;;;;49.70;27.27;;;;;;;7.56;90.29;94648.88;5019056;28;20193;-80
2024/03/04 05:12:39;;;;;;;48.03;26.87;;;;;;;7.52;90.74;94652.75;5014437;28;20183;-80
2024/03/04 05:15:07;;;;;;;46.60;27.33;;;;;;;7.43;91.48;94662.19;5000847;28;20233;-78
2024/03/04 05:17:36;;;;;;;46.13;27.93;;;;;;;7.48;91.25;94665.13;5007082;28;20678;-79
2024/03/04 05:20:06;;;;;;;45.80;26.50;;;;;;;7.50;91.39;94660.63;5019439;28;20191;-79
2024/03/04 05:22:31;;;;;;;47.13;27.83;;;;;;;7.53;91.54;94675.03;5002393;28;20224;-80
2024/03/04 05:24:56;;;;;;;49.60;28.57;;;;;;;7.29;92.17;94665.31;5012168;28;20215;-79
2024/03/04 05:27:22;;;;;;;49.97;27.70;;;;;;;7.56;91.42;94680.69;5010641;28;20178;-79
2024/03/04 05:29:48;;;;;;;51.17;29.60;;;;;;;7.50;91.67;94672.72;5019969;28;20193;-79
2024/03/04 05:32:13;;;;;;;55.70;29.63;;;;;;;7.58;91.24;94683.94;5014455;28;20206;-79
2024/03/04 05:34:40;;;;;;;54.80;29.77;;;;;;;7.63;90.42;94688.66;5006659;28;20693;-80
2024/03/04 05:37:05;;;;;;;57.63;31.37;;;;;;;7.52;91.63;94689.72;5002339;28;20183;-79
2024/03/04 05:39:31;;;;;;;54.57;30.30;;;;;;;7.69;91.30;94692.44;5013378;28;20286;-79
2024/03/04 05:41:56;;;;;;;55.60;30.37;;;;;;;7.55;91.29;94697.16;5013943;28;20210;-79
2024/03/04 05:44:23;;;;;;;53.60;30.27;;;;;;;7.74;90.65;94701.34;5009177;28;20227;-79
2024/03/04 05:46:48;;;;;;;57.03;30.87;;;;;;;7.70;90.84;94710.38;5004215;28;20265;-80
2024/03/04 05:49:13;;;;;;;52.03;31.23;;;;;;;7.63;91.69;94704.16;5007730;28;20194;-79
2024/03/04 05:51:42;;;;;;;60.13;32.90;;;;;;;7.83;90.47;94715.13;5015082;28;20183;-79
2024/03/04 05:54:09;;;;;;;58.37;33.10;;;;;;;7.78;90.53;94718.19;5010334;28;20195;-79
2024/03/04 05:56:43;;;;;;;59.70;31.77;;;;;;;7.78;90.39;94723.34;5016606;28;20576;-79
2024/03/04 05:59:09;;;;;;;60.27;31.77;;;;;;;7.71;90.62;94731.84;4988881;28;20701;-79
2024/03/04 06:01:35;;;;;;;57.63;30.53;;;;;;;7.73;91.20;94725.56;5015540;28;20180;-79
2024/03/04 06:04:00;;;;;;;55.57;30.17;;;;;;;7.86;90.30;94735.50;5004391;28;21031;-79
2024/03/04 06:06:26;;;;;;;60.17;32.77;;;;;;;7.74;90.36;94739.28;5007547;28;20262;-80
2024/03/04 06:08:51;;;;;;;61.30;33.20;;;;;;;7.64;91.38;94737.59;5019248;28;20250;-79
2024/03/04 06:11:16;;;;;;;53.87;30.10;;;;;;;7.88;90.40;94739.56;4997780;28;20645;-79
2024/03/04 06:13:42;;;;;;;63.43;34.37;;;;;;;7.71;91.01;94745.56;5014299;28;20193;-79
2024/03/04 06:16:07;;;;;;;58.33;32.00;;;;;;;7.80;90.72;94756.78;5013684;28;20202;-80
2024/03/04 06:18:32;;;;;;;56.73;32.93;;;;;;;7.73;91.10;94748.00;5010385;28;20179;-79
2024/03/04 06:20:59;;;;;;;54.93;30.43;;;;;;;7.73;90.87;94748.00;5018285;28;20195;-79
2024/03/04 06:23:25;;;;;;;59.73;33.73;;;;;;;7.71;91.35;94753.31;5017669;28;20234;-80
2024/03/04 06:25:50;;;;;;;57.53;32.43;;;;;;;7.79;91.31;94753.41;5002749;28;20711;-80
2024/03/04 06:28:15;;;;;;;67.63;32.77;;;;;;;7.86;90.91;94756.16;5006356;28;20309;-80
2024/03/04 06:30:41;;;;;;;57.87;32.67;;;;;;;7.88;90.67;94760.25;5017752;28;20183;-79
2024/03/04 06:33:06;;;;;;;56.40;33.00;;;;;;;7.75;91.00;94759.81;5015770;28;20198;-79
2024/03/04 06:35:32;;;;;;;60.93;33.70;;;;;;;7.70;91.79;94763.81;5020573;28;20302;-78
2024/03/04 06:37:57;;;;;;;61.53;33.67;;;;;;;7.67;91.93;94765.72;5021382;28;20607;-78
2024/03/04 06:40:24;;;;;;;62.57;33.63;;;;;;;7.73;91.84;94764.31;5019594;28;20199;-79
2024/03/04 06:42:49;;;;;;;62.73;33.23;;;;;;;7.72;91.77;94773.03;5014021;28;20585;-79
2024/03/04 06:45:15;;;;;;;66.37;36.90;;;;;;;7.73;91.81;94766.91;5022593;28;20221;-78
2024/03/04 06:47:40;;;;;;;62.93;35.57;;;;;;;7.70;91.87;94777.56;5013261;28;20200;-78
2024/03/04 06:50:06;;;;;;;65.60;35.63;;;;;;;7.64;91.91;94778.94;5010631;28;20191;-79
2024/03/04 06:52:31;;;;;;;74.43;43.67;;;;;;;7.64;92.09;94776.38;5020977;28;20183;-79
2024/03/04 06:54:57;;;;;;;63.93;35.50;;;;;;;7.74;92.18;94784.03;5019727;28;20215;-79
2024/03/04 06:57:22;;;;;;;55.73;33.90;;;;;;;7.83;91.50;94782.31;5026105;28;20174;-79
2024/03/04 06:59:47;;;;;;;65.03;35.93;;;;;;;7.86;91.57;94785.44;5017575;28;20183;-79
2024/03/04 07:02:13;;;;;;;67.23;35.37;;;;;;;7.81;91.39;94785.06;5018154;28;20210;-79
2024/03/04 07:04:38;;;;;;;61.00;33.37;;;;;;;7.71;92.29;94788.69;5020296;28;20273;-80
2024/03/04 07:07:04;;;;;;;63.67;34.67;;;;;;;7.86;91.49;94795.78;5004023;28;20299;-83
2024/03/04 07:09:29;;;;;;;60.90;33.57;;;;;;;7.92;91.16;94795.16;5021478;28;20224;-80
2024/03/04 07:11:54;;;;;;;57.23;32.90;;;;;;;7.86;91.45;94800.94;5009655;28;20198;-80
2024/03/04 07:14:20;;;;;;;63.83;35.00;;;;;;;7.81;92.16;94802.34;5024030;28;20659;-80
2024/03/04 07:16:45;;;;;;;63.67;34.80;;;;;;;7.91;91.24;94803.88;5011222;28;20199;-80
2024/03/04 07:19:10;;;;;;;58.80;33.87;;;;;;;8.03;90.97;94803.66;5020772;28;20183;-80
2024/03/04 07:21:36;;;;;;;65.97;33.97;;;;;;;8.05;91.09;94801.75;5003607;28;20193;-80
2024/03/04 07:24:01;;;;;;;62.00;35.40;;;;;;;8.07;91.00;94810.97;5008380;28;20221;-80
2024/03/04 07:26:26;;;;;;;61.10;33.90;;;;;;;8.09;90.96;94814.22;5021261;28;20191;-81
2024/03/04 07:28:52;;;;;;;65.97;35.27;;;;;;;8.11;90.57;94814.84;5020757;28;20178;-79
2024/03/04 07:31:17;;;;;;;64.37;37.63;;;;;;;8.11;90.61;94803.72;5018963;28;20183;-81
2024/03/04 07:33:42;;;;;;;64.50;34.43;;;;;;;8.18;90.22;94808.13;5018802;28;20179;-80
2024/03/04 07:36:11;;;;;;;63.10;35.57;;;;;;;8.16;90.51;94817.00;5005246;28;20230;-79
2024/03/04 07:38:36;;;;;;;63.70;32.97;;;;;;;8.21;90.38;94817.34;5003103;28;20253;-80
2024/03/04 07:41:02;;;;;;;58.33;32.23;;;;;;;8.20;90.27;94824.31;5008688;28;20218;-80
2024/03/04 07:43:28;;;;;;;55.43;32.07;;;;;;;8.17;90.26;94829.78;5009655;28;20206;-84
2024/03/04 07:45:53;;;;;;;65.17;33.33;;;;;;;8.14;89.97;94829.28;5017587;28;20207;-80
2024/03/04 07:48:18;;;;;;;64.40;34.20;;;;;;;8.16;90.15;94823.00;5016902;28;20257;-80
2024/03/04 07:50:44;;;;;;;55.27;31.47;;;;;;;8.31;89.90;94827.63;5017841;28;20187;-81
2024/03/04 07:53:09;;;;;;;64.93;33.23;;;;;;;8.19;89.75;94834.81;5019315;28;20592;-81
2024/03/04 07:55:35;;;;;;;55.83;31.93;;;;;;;8.28;89.82;94833.91;5012648;28;20205;-80
2024/03/04 07:58:00;;;;;;;57.13;31.73;;;;;;;8.27;89.97;94837.44;5006811;28;20193;-81
2024/03/04 08:00:26;;;;;;;56.77;31.70;;;;;;;8.22;90.24;94839.69;5005835;28;20189;-80
2024/03/04 08:02:51;;;;;;;51.77;28.90;;;;;;;8.20;89.95;94839.81;5008633;28;20230;-80
2024/03/04 08:05:16;;;;;;;54.07;30.57;;;;;;;8.19;89.87;94840.78;5019199;28;20210;-80
2024/03/04 08:07:42;;;;;;;65.70;31.97;;;;;;;8.23;89.67;94843.91;5001489;28;20183;-80
2024/03/04 08:10:08;;;;;;;59.73;32.70;;;;;;;8.26;89.72;94845.38;5017073;28;20179;-80
2024/03/04 08:12:37;;;;;;;58.83;31.80;;;;;;;8.29;89.85;94845.06;5019689;28;20231;-81
2024/03/04 08:15:03;;;;;;;58.63;32.90;;;;;;;8.32;89.80;94850.75;5012005;28;20205;-81
2024/03/04 08:17:29;;;;;;;61.83;33.73;;;;;;;8.35;89.70;94853.06;5018169;28;20175;-80
2024/03/04 08:19:56;;;;;;;56.77;33.23;;;;;;;8.31;89.99;94851.72;5002798;28;20191;-80
2024/03/04 08:22:22;;;;;;;63.37;33.60;;;;;;;8.36;89.32;94859.88;5010625;28;20195;-80
2024/03/04 08:24:48;;;;;;;65.97;36.17;;;;;;;8.34;89.71;94863.53;5013848;28;20286;-81
2024/03/04 08:27:14;;;;;;;61.43;34.40;;;;;;;8.38;89.47;94863.09;5020073;28;20230;-80
2024/03/04 08:29:40;;;;;;;64.37;35.13;;;;;;;8.46;89.07;94860.56;5006350;28;20668;-80
2024/03/04 08:32:05;;;;;;;66.53;35.57;;;;;;;8.46;89.35;94875.28;5016175;28;20201;-81
2024/03/04 08:34:32;;;;;;;68.53;35.93;;;;;;;8.51;89.41;94865.31;5015519;28;20210;-81
2024/03/04 08:36:58;;;;;;;67.17;35.80;;;;;;;8.47;89.67;94864.78;5018935;28;20718;-81
2024/03/04 08:39:23;;;;;;;75.83;36.67;;;;;;;8.44;89.48;94878.03;5012370;28;20283;-82
2024/03/04 08:41:48;;;;;;;67.40;35.63;;;;;;;8.50;89.56;94866.28;5005268;28;20289;-81
2024/03/04 08:44:14;;;;;;;65.80;35.97;;;;;;;8.50;89.45;94886.97;5017080;28;20199;-81
2024/03/04 08:46:39;;;;;;;63.37;35.10;;;;;;;8.60;89.47;94887.69;5008825;28;20252;-80
2024/03/04 08:49:05;;;;;;;71.60;36.47;;;;;;;8.66;89.11;94889.69;5002872;28;20193;-81
2024/03/04 08:51:31;;;;;;;67.47;36.43;;;;;;;8.67;89.00;94895.69;5005226;28;20187;-81
2024/03/04 08:53:56;;;;;;;62.40;35.20;;;;;;;8.71;88.33;94890.03;5020314;28;20187;-81
2024/03/04 08:56:22;;;;;;;63.07;35.03;;;;;;;8.57;89.53;94888.00;5008533;28;20210;-81
2024/03/04 08:58:47;;;;;;;67.30;35.00;;;;;;;8.67;88.74;94898.25;5014313;28;20933;-81
2024/03/04 09:01:13;;;;;;;61.47;34.60;;;;;;;8.50;88.65;94889.56;5007198;28;20179;-80
2024/03/04 09:03:40;;;;;;;71.30;36.67;;;;;;;8.69;88.67;94904.91;5011993;28;20203;-81
2024/03/04 09:06:06;;;;;;;66.70;35.13;;;;;;;8.75;88.65;94899.13;5009329;28;20264;-81
2024/03/04 09:08:31;;;;;;;85.20;44.93;;;;;;;8.64;88.38;94903.72;5007062;28;20546;-81
2024/03/04 09:10:56;;;;;;;84.57;41.53;;;;;;;8.63;88.74;94902.91;5020933;28;20792;-85
2024/03/04 09:13:22;;;;;;;78.63;40.77;;;;;;;8.72;88.47;94912.34;5010003;28;20240;-83
2024/03/04 09:15:47;;;;;;;64.10;37.30;;;;;;;8.79;88.29;94905.63;5016194;28;20245;-83
2024/03/04 09:18:12;;;;;;;73.27;39.30;;;;;;;8.71;88.63;94907.34;5026530;28;20238;-81
2024/03/04 09:20:38;;;;;;;68.40;36.70;;;;;;;8.76;87.84;94910.28;5008574;28;20186;-81
2024/03/04 09:23:04;;;;;;;76.03;39.77;;;;;;;8.84;88.36;94904.38;4999669;28;20648;-80
2024/03/04 09:25:29;;;;;;;62.37;33.23;;;;;;;8.85;87.72;94914.56;5012160;28;20217;-80
2024/03/04 09:27:55;;;;;;;57.70;33.27;;;;;;;8.85;87.74;94908.56;5003608;28;20659;-81
2024/03/04 09:30:21;;;;;;;59.87;31.57;;;;;;;8.89;87.22;94910.69;5018274;28;20205;-80
2024/03/04 09:32:46;;;;;;;62.07;35.03;;;;;;;8.88;87.25;94914.25;4997671;28;20731;-81
2024/03/04 09:35:12;;;;;;;77.80;42.83;;;;;;;8.79;87.46;94913.38;5001413;28;20222;-81
2024/03/04 09:37:37;;;;;;;63.70;34.33;;;;;;;8.77;87.85;94914.50;5014831;28;20671;-80
2024/03/04 09:40:04;;;;;;;66.50;36.13;;;;;;;8.88;87.72;94919.41;5013042;28;20270;-83
2024/03/04 09:42:30;;;;;;;63.97;34.13;;;;;;;8.80;87.95;94912.41;5001125;28;20225;-86
2024/03/04 09:44:57;;;;;;;64.27;34.87;;;;;;;8.85;87.63;94913.75;5007550;28;20206;-83
2024/03/04 09:47:22;;;;;;;66.67;34.90;;;;;;;8.87;87.79;94917.81;5006461;28;20237;-81
2024/03/04 09:49:51;;;;;;;52.80;30.37;;;;;;;8.88;87.69;94922.00;5014119;28;20191;-81
2024/03/04 09:52:18;;;;;;;56.77;32.77;;;;;;;8.90;87.86;94924.44;5006993;28;20577;-83
2024/03/04 09:54:43;;;;;;;84.57;42.43;;;;;;;8.91;87.59;94926.88;5016975;28;20222;-83
2024/03/04 09:57:08;;;;;;;64.27;35.67;;;;;;;8.72;88.39;94922.72;5004924;28;20201;-82
2024/03/04 09:59:34;;;;;;;61.07;32.43;;;;;;;8.77;87.67;94925.66;5003755;28;20191;-82
2024/03/04 10:02:01;;;;;;;74.80;40.63;;;;;;;8.98;87.56;94924.50;5015769;28;20225;-82
2024/03/04 10:04:27;;;;;;;79.67;40.17;;;;;;;9.00;87.38;94927.75;5006023;28;20383;-81
2024/03/04 10:06:52;;;;;;;61.77;34.27;;;;;;;9.06;87.21;94922.78;4995214;28;20194;-82
2024/03/04 10:09:17;;;;;;;64.20;36.13;;;;;;;9.15;87.26;94926.22;5000220;28;20727;-82
2024/03/04 10:11:43;;;;;;;57.47;31.40;;;;;;;9.13;87.00;94932.53;4998341;28;20568;-82
2024/03/04 10:14:09;;;;;;;69.53;37.30;;;;;;;9.16;86.81;94927.84;5009877;28;20202;-82
2024/03/04 10:16:37;;;;;;;80.50;41.63;;;;;;;9.16;86.61;94933.03;4994935;28;20194;-82
2024/03/04 10:19:04;;;;;;;104.23;58.97;;;;;;;9.26;86.74;94928.53;5024906;28;20201;-81
2024/03/04 10:21:33;;;;;;;73.23;40.37;;;;;;;9.28;86.49;94937.00;5009364;28;20190;-81
2024/03/04 10:24:09;;;;;;;63.97;33.90;;;;;;;9.24;86.36;94938.25;5026335;28;20687;-81
2024/03/04 10:26:45;;;;;;;71.03;40.00;;;;;;;9.05;86.87;94936.69;5033575;28;20182;-82
2024/03/04 10:29:12;;;;;;;67.13;36.47;;;;;;;9.25;86.34;94941.66;5031584;28;20190;-81
2024/03/04 10:31:48;;;;;;;60.23;33.37;;;;;;;9.19;86.11;94944.84;5032857;28;20197;-82
2024/03/04 10:34:13;;;;;;;66.40;33.37;;;;;;;9.14;85.42;94940.13;5015407;28;20244;-81
2024/03/04 10:36:40;;;;;;;62.27;34.47;;;;;;;9.20;86.00;94936.13;5035214;28;20184;-81
2024/03/04 10:39:13;;;;;;;63.63;34.60;;;;;;;9.32;85.52;94940.06;5033024;28;20184;-80
2024/03/04 10:41:43;;;;;;;66.80;34.00;;;;;;;9.36;85.79;94939.63;5037884;28;20199;-81
2024/03/04 10:44:09;;;;;;;70.87;35.27;;;;;;;9.35;85.82;94948.34;5032912;28;20197;-82
2024/03/04 10:46:37;;;;;;;72.97;36.60;;;;;;;9.11;86.28;94944.81;5023185;28;20183;-81
2024/03/04 10:49:02;;;;;;;74.27;36.47;;;;;;;9.02;86.66;94949.13;5010563;28;20194;-81
2024/03/04 10:51:28;;;;;;;73.17;37.33;;;;;;;9.21;85.82;94951.50;5017084;28;20183;-81
2024/03/04 10:53:54;;;;;;;71.43;39.87;;;;;;;9.15;85.47;94943.53;5020334;28;20187;-81
2024/03/04 10:56:20;;;;;;;79.90;45.90;;;;;;;9.24;86.07;94945.22;5026068;28;20710;-81
2024/03/04 10:58:46;;;;;;;70.23;38.47;;;;;;;9.33;85.39;94946.88;5024904;28;20187;-81
2024/03/04 11:01:17;;;;;;;88.23;58.70;;;;;;;9.22;86.22;94942.78;5021531;28;20191;-80
2024/03/04 11:04:04;;;;;;;65.63;35.43;;;;;;;9.27;86.24;94944.88;5024040;28;20233;-81
2024/03/04 11:06:30;;;;;;;63.70;33.27;;;;;;;9.32;85.98;94945.25;5022889;28;20202;-81
2024/03/04 11:08:56;;;;;;;69.50;36.53;;;;;;;9.31;85.66;94949.63;5012027;28;20179;-80
2024/03/04 11:11:29;;;;;;;71.63;34.77;;;;;;;9.35;85.46;94944.94;5020849;28;20183;-81
2024/03/04 11:14:04;;;;;;;68.73;32.57;;;;;;;9.31;85.89;94951.41;5022187;28;20202;-81
2024/03/04 11:16:36;;;;;;;62.57;33.13;;;;;;;9.27;85.49;94950.06;5021533;28;20242;-81
2024/03/04 11:19:03;;;;;;;60.47;31.67;;;;;;;9.24;84.94;94945.22;5026310;28;20337;-81